Time;durP1;ratioP1;P1;durP2;ratioP2;P2;SDS_P1;SDS_P2;PMS_P1;PMS_P2;Temp;Humidity;BMP_temperature;BMP_pressure;BME280_temperature;BME280_humidity;BME280_pressure;Samples;Min_cycle;Max_cycle;Signal;HPM_P1;HPM_P2
2023/04/05 00:00:08;;;;;;;;;;;;;;;18.06;57.52;101784.70;2257903;78;50675;-73
2023/04/05 00:03:12;;;;;;;;;;;;;;;18.08;57.52;101784.53;2279011;78;22329;-74
2023/04/05 00:06:11;;;;;;;;;;;;;;;18.10;57.73;101782.55;2278670;78;22289;-76
2023/04/05 00:09:13;;;;;;;;;;;;;;;18.14;57.61;101774.56;2279081;78;50734;-75
2023/04/05 00:12:15;;;;;;;;;;;;;;;18.14;57.54;101771.89;2258062;78;51419;-74
2023/04/05 00:15:16;;;;;;;;;;;;;;;18.13;57.53;101776.88;2279006;78;50358;-75
2023/04/05 00:18:21;;;;;;;;;;;;;;;18.11;57.56;101778.39;2257741;78;51705;-74
2023/04/05 00:21:23;;;;;;;;;;;;;;;18.08;57.63;101776.00;2279040;78;50417;-74
2023/04/05 00:24:24;;;;;;;;;;;;;;;18.06;57.66;101776.16;2279002;77;51633;-75
2023/04/05 00:27:26;;;;;;;;;;;;;;;18.05;57.64;101779.81;2279082;78;50189;-74
2023/04/05 00:30:27;;;;;;;;;;;;;;;18.02;57.70;101784.14;2258264;78;49673;-74
2023/04/05 00:33:29;;;;;;;;;;;;;;;18.03;57.74;101772.93;2279656;78;51653;-74
2023/04/05 00:36:31;;;;;;;;;;;;;;;18.03;57.68;101772.45;2279088;78;51534;-75
2023/04/05 00:39:32;;;;;;;;;;;;;;;18.01;57.79;101771.77;2257819;78;51567;-74
2023/04/05 00:42:34;;;;;;;;;;;;;;;18.06;57.81;101777.50;2257663;78;52626;-73
2023/04/05 00:45:36;;;;;;;;;;;;;;;18.12;57.68;101764.50;2245457;78;51484;-75
2023/04/05 00:48:37;;;;;;;;;;;;;;;18.16;57.60;101775.23;2253537;78;50152;-73
2023/04/05 00:51:39;;;;;;;;;;;;;;;18.19;57.58;101776.30;2241789;79;50314;-73
2023/04/05 00:54:42;;;;;;;;;;;;;;;18.16;57.58;101767.20;2221101;79;51239;-74
2023/04/05 00:57:44;;;;;;;;;;;;;;;18.13;57.58;101771.53;2241792;79;51504;-72
2023/04/05 01:00:47;;;;;;;;;;;;;;;18.11;57.62;101766.81;2241649;79;51535;-74
2023/04/05 01:03:55;;;;;;;;;;;;;;;18.05;57.71;101761.07;2221179;79;51316;-74
2023/04/05 01:07:02;;;;;;;;;;;;;;;18.03;57.73;101757.73;2221245;79;51470;-74
2023/04/05 01:10:06;;;;;;;;;;;;;;;18.05;57.74;101763.75;2241615;78;51562;-75
2023/04/05 01:13:07;;;;;;;;;;;;;;;18.01;57.81;101754.86;2221757;79;51642;-76
2023/04/05 01:16:10;;;;;;;;;;;;;;;17.99;57.95;101755.00;2253388;78;50628;-74
2023/04/05 01:19:12;;;;;;;;;;;;;;;18.04;58.00;101758.06;2221267;79;51109;-76
2023/04/05 01:22:19;;;;;;;;;;;;;;;18.12;57.89;101755.13;2221368;79;50658;-74
2023/04/05 01:25:35;;;;;;;;;;;;;;;18.15;57.78;101752.97;2241082;78;51749;-74
2023/04/05 01:28:57;;;;;;;;;;;;;;;18.16;57.70;101749.78;2241947;79;50707;-73
2023/04/05 01:32:13;;;;;;;;;;;;;;;18.16;57.70;101756.48;2241921;79;50487;-74
2023/04/05 01:35:16;;;;;;;;;;;;;;;18.15;57.78;101751.63;2241736;79;51586;-73
2023/04/05 01:38:18;;;;;;;;;;;;;;;18.14;57.82;101749.96;2241945;79;50726;-74
2023/04/05 01:41:20;;;;;;;;;;;;;;;18.07;57.92;101755.58;2241829;79;50321;-73
2023/04/05 01:44:22;;;;;;;;;;;;;;;18.06;57.89;101749.89;2232227;78;52654;-75
2023/04/05 01:47:24;;;;;;;;;;;;;;;18.04;57.88;101746.01;2245911;78;51571;-72
2023/04/05 01:50:25;;;;;;;;;;;;;;;18.03;57.92;101745.67;2241960;79;51569;-72
2023/04/05 01:53:27;;;;;;;;;;;;;;;18.01;57.99;101744.98;2241899;79;51428;-73
2023/04/05 01:56:28;;;;;;;;;;;;;;;18.08;58.12;101747.03;2221135;79;52398;-75
2023/04/05 01:59:30;;;;;;;;;;;;;;;18.13;57.98;101734.03;2241915;79;50438;-74
2023/04/05 02:02:32;;;;;;;;;;;;;;;18.15;57.94;101743.59;2221523;79;52391;-73
2023/04/05 02:05:33;;;;;;;;;;;;;;;18.12;57.94;101733.19;2241801;79;51522;-74
2023/04/05 02:08:35;;;;;;;;;;;;;;;18.12;57.93;101736.38;2221491;79;50313;-72
2023/04/05 02:11:36;;;;;;;;;;;;;;;18.07;57.94;101734.15;2193153;79;51212;-73
2023/04/05 02:14:38;;;;;;;;;;;;;;;18.05;57.94;101732.95;2233263;78;50297;-73
2023/04/05 02:17:44;;;;;;;;;;;;;;;18.00;57.98;101735.25;2269391;78;50286;-72
2023/04/05 02:20:43;;;;;;;;;;;;;;;17.99;57.91;101736.25;2257941;78;22344;-74
2023/04/05 02:23:45;;;;;;;;;;;;;;;18.00;57.93;101726.38;2279025;78;50031;-74
2023/04/05 02:26:46;;;;;;;;;;;;;;;18.01;57.91;101724.89;2279002;78;50717;-72
2023/04/05 02:29:48;;;;;;;;;;;;;;;18.00;57.96;101723.20;2283331;77;51265;-73
2023/04/05 02:32:50;;;;;;;;;;;;;;;18.02;58.11;101725.23;2233406;78;51721;-73
2023/04/05 02:35:52;;;;;;;;;;;;;;;18.07;58.12;101723.44;2257932;78;51548;-75
2023/04/05 02:38:54;;;;;;;;;;;;;;;18.14;57.99;101723.17;2279227;78;50290;-74
2023/04/05 02:41:56;;;;;;;;;;;;;;;18.18;57.87;101725.03;2279050;78;51598;-74
2023/04/05 02:44:58;;;;;;;;;;;;;;;18.19;57.79;101720.04;2276727;77;51198;-73
2023/04/05 02:47:59;;;;;;;;;;;;;;;18.16;57.80;101718.98;2243212;78;50718;-72
2023/04/05 02:51:01;;;;;;;;;;;;;;;18.14;57.80;101718.32;2257983;78;50409;-72
2023/04/05 02:54:02;;;;;;;;;;;;;;;18.10;57.88;101716.42;2257901;78;50840;-74
2023/04/05 02:57:04;;;;;;;;;;;;;;;18.05;57.88;101714.70;2258248;78;51170;-72
2023/04/05 03:00:07;;;;;;;;;;;;;;;17.99;57.98;101718.84;2258661;78;51559;-73
2023/04/05 03:03:09;;;;;;;;;;;;;;;17.99;57.91;101713.48;2258216;78;50703;-72
2023/04/05 03:06:11;;;;;;;;;;;;;;;18.02;57.92;101719.03;2278975;78;50366;-72
2023/04/05 03:09:13;;;;;;;;;;;;;;;17.98;58.15;101710.48;2233569;78;52422;-74
2023/04/05 03:12:15;;;;;;;;;;;;;;;18.01;58.16;101703.98;2258310;78;51735;-73
2023/04/05 03:15:16;;;;;;;;;;;;;;;18.06;58.15;101699.84;2247271;78;50718;-74
2023/04/05 03:18:19;;;;;;;;;;;;;;;18.13;57.96;101695.19;2256561;78;50279;-75
2023/04/05 03:21:21;;;;;;;;;;;;;;;18.14;57.88;101692.88;2229520;78;52469;-74
2023/04/05 03:24:22;;;;;;;;;;;;;;;18.14;57.86;101690.19;2213130;79;52301;-73
2023/04/05 03:27:24;;;;;;;;;;;;;;;18.11;57.83;101692.69;2233809;79;50270;-73
2023/04/05 03:30:27;;;;;;;;;;;;;;;18.06;57.88;101695.81;2233846;79;51649;-72
2023/04/05 03:33:28;;;;;;;;;;;;;;;18.04;57.83;101695.13;2189721;79;50180;-72
2023/04/05 03:36:40;;;;;;;;;;;;;;;17.99;57.96;101693.91;2213183;79;51533;-72
2023/04/05 03:39:33;;;;;;;;;;;;;;;17.97;57.90;101695.89;2232793;78;22959;-72
2023/04/05 03:42:35;;;;;;;;;;;;;;;18.00;57.93;101688.88;2233685;79;50407;-72
2023/04/05 03:45:36;;;;;;;;;;;;;;;17.99;57.97;101684.03;2213219;79;51006;-72
2023/04/05 03:48:38;;;;;;;;;;;;;;;18.01;58.06;101690.08;2248832;78;50458;-73
2023/04/05 03:51:40;;;;;;;;;;;;;;;18.10;58.12;101688.80;2267345;78;50302;-74
2023/04/05 03:54:41;;;;;;;;;;;;;;;18.18;57.90;101687.53;2278875;78;51562;-72
2023/04/05 03:57:43;;;;;;;;;;;;;;;18.22;57.85;101678.20;2257737;78;51107;-74
2023/04/05 04:00:45;;;;;;;;;;;;;;;18.24;57.72;101685.59;2279042;78;50368;-73
2023/04/05 04:03:46;;;;;;;;;;;;;;;18.22;57.71;101682.22;2258072;78;51613;-73
2023/04/05 04:06:48;;;;;;;;;;;;;;;18.17;57.68;101689.38;2257867;78;50302;-73
2023/04/05 04:09:50;;;;;;;;;;;;;;;18.15;57.74;101681.15;2257936;78;52412;-73
2023/04/05 04:12:51;;;;;;;;;;;;;;;18.11;57.77;101678.42;2257838;78;51659;-73
2023/04/05 04:15:53;;;;;;;;;;;;;;;18.06;57.80;101675.73;2257697;78;51465;-73
2023/04/05 04:18:55;;;;;;;;;;;;;;;18.01;57.72;101671.33;2239575;78;51484;-73
2023/04/05 04:21:57;;;;;;;;;;;;;;;18.01;57.76;101675.86;2251905;78;52632;-72
2023/04/05 04:25:03;;;;;;;;;;;;;;;18.02;57.98;101683.72;2257870;78;50473;-73
2023/04/05 04:28:05;;;;;;;;;;;;;;;18.08;58.11;101684.09;2279439;78;22320;-73
2023/04/05 04:31:09;;;;;;;;;;;;;;;18.14;58.07;101676.80;2258362;78;24165;-73
2023/04/05 04:34:13;;;;;;;;;;;;;;;18.19;57.91;101676.67;2256830;78;51797;-73
2023/04/05 04:37:21;;;;;;;;;;;;;;;18.21;57.85;101680.05;2279020;78;51583;-73
2023/04/05 04:40:18;;;;;;;;;;;;;;;18.21;57.77;101681.38;2279432;78;22384;-75
2023/04/05 04:43:26;;;;;;;;;;;;;;;18.18;57.76;101680.33;2279040;78;50267;-73
2023/04/05 04:46:29;;;;;;;;;;;;;;;18.16;57.81;101681.48;2279163;78;22341;-73
2023/04/05 04:49:27;;;;;;;;;;;;;;;18.14;57.75;101682.16;2266991;77;23117;-74
2023/04/05 04:52:28;;;;;;;;;;;;;;;18.13;57.89;101681.80;2258295;78;52331;-73
2023/04/05 04:55:32;;;;;;;;;;;;;;;18.09;57.87;101677.77;2278896;78;51404;-73
2023/04/05 04:58:33;;;;;;;;;;;;;;;18.07;57.73;101683.27;2258885;78;50270;-73
2023/04/05 05:01:36;;;;;;;;;;;;;;;18.05;58.00;101685.25;2257834;78;49971;-73
2023/04/05 05:04:40;;;;;;;;;;;;;;;18.11;58.19;101681.10;2278981;78;51563;-72
2023/04/05 05:07:41;;;;;;;;;;;;;;;18.17;58.10;101685.86;2258677;78;24813;-72
2023/04/05 05:10:43;;;;;;;;;;;;;;;18.21;58.04;101684.06;2233516;78;51337;-72
2023/04/05 05:13:44;;;;;;;;;;;;;;;18.18;57.87;101683.01;2258176;78;51607;-73
2023/04/05 05:16:46;;;;;;;;;;;;;;;18.16;57.88;101683.69;2258351;78;52469;-72
2023/04/05 05:19:48;;;;;;;;;;;;;;;18.12;57.83;101679.62;2241819;78;51664;-72
2023/04/05 05:22:50;;;;;;;;;;;;;;;18.10;58.03;101684.79;2257916;78;52382;-72
2023/04/05 05:25:53;;;;;;;;;;;;;;;18.10;57.92;101679.44;2258242;78;51670;-74
2023/04/05 05:28:55;;;;;;;;;;;;;;;18.05;57.87;101679.38;2278817;78;51519;-75
2023/04/05 05:31:57;;;;;;;;;;;;;;;18.06;57.93;101678.41;2258177;78;50715;-74
2023/04/05 05:34:58;;;;;;;;;;;;;;;18.02;58.00;101681.04;2257627;78;52530;-74
2023/04/05 05:38:01;;;;;;;;;;;;;;;17.98;58.12;101679.69;2233567;78;52523;-74
2023/04/05 05:41:03;;;;;;;;;;;;;;;18.04;58.00;101675.55;2279143;78;50377;-73
2023/04/05 05:44:05;;;;;;;;;;;;;;;18.09;57.77;101677.26;2257744;78;50349;-74
2023/04/05 05:47:07;;;;;;;;;;;;;;;18.17;57.38;101677.32;2257737;78;52466;-74
2023/04/05 05:50:09;;;;;;;;;;;;;;;18.24;57.10;101674.37;2266654;78;51544;-71
2023/04/05 05:53:10;;;;;;;;;;;;;;;18.25;57.03;101674.70;2279141;78;51583;-76
2023/04/05 05:56:12;;;;;;;;;;;;;;;18.25;57.00;101680.56;2257595;78;51421;-76
2023/04/05 05:59:13;;;;;;;;;;;;;;;18.24;57.03;101677.05;2233672;78;54339;-76
2023/04/05 06:02:15;;;;;;;;;;;;;;;18.18;57.12;101668.78;2278866;78;50617;-76
2023/04/05 06:05:17;;;;;;;;;;;;;;;18.14;57.14;101666.09;2257884;78;51577;-76
2023/04/05 06:08:18;;;;;;;;;;;;;;;18.08;57.21;101666.69;2232544;78;51598;-76
2023/04/05 06:11:25;;;;;;;;;;;;;;;18.05;57.27;101663.82;2239717;79;50754;-75
2023/04/05 06:14:23;;;;;;;;;;;;;;;18.01;57.44;101656.61;2218664;79;22404;-75
2023/04/05 06:17:25;;;;;;;;;;;;;;;18.05;57.50;101657.96;2252683;78;50333;-76
2023/04/05 06:20:27;;;;;;;;;;;;;;;18.18;57.30;101650.03;2221289;79;50718;-75
2023/04/05 06:23:28;;;;;;;;;;;;;;;18.26;57.03;101656.78;2197472;79;53517;-75
2023/04/05 06:26:30;;;;;;;;;;;;;;;18.28;57.01;101673.05;2221129;79;51637;-74
2023/04/05 06:29:32;;;;;;;;;;;;;;;18.34;56.82;101674.28;2241739;79;50739;-74
2023/04/05 06:32:33;;;;;;;;;;;;;;;18.36;56.77;101669.58;2221295;79;52022;-74
2023/04/05 06:35:35;;;;;;;;;;;;;;;18.38;56.64;101670.78;2241551;79;51507;-74
2023/04/05 06:38:36;;;;;;;;;;;;;;;18.35;56.62;101669.25;2223475;78;52376;-74
2023/04/05 06:41:38;;;;;;;;;;;;;;;18.40;56.49;101670.96;2249836;78;51603;-73
2023/04/05 06:44:40;;;;;;;;;;;;;;;18.36;56.48;101679.47;2249127;78;51580;-73
2023/04/05 06:47:41;;;;;;;;;;;;;;;18.33;56.84;101680.62;2244940;78;51518;-76
2023/04/05 06:50:43;;;;;;;;;;;;;;;18.35;56.92;101668.42;2257547;78;49637;-74
2023/04/05 06:53:44;;;;;;;;;;;;;;;18.39;57.00;101675.96;2278977;77;50267;-74
2023/04/05 06:56:46;;;;;;;;;;;;;;;18.47;57.23;101677.38;2247921;78;51556;-73
2023/04/05 06:59:48;;;;;;;;;;;;;;;18.50;57.27;101677.06;2267886;78;51568;-73
2023/04/05 07:02:49;;;;;;;;;;;;;;;18.47;57.50;101679.20;2232606;78;52914;-74
2023/04/05 07:05:53;;;;;;;;;;;;;;;18.47;57.66;101677.38;2278890;78;50425;-75
2023/04/05 07:08:54;;;;;;;;;;;;;;;18.46;57.54;101680.20;2278235;78;50410;-75
2023/04/05 07:11:56;;;;;;;;;;;;;;;18.42;57.55;101672.99;2257915;78;51545;-74
2023/04/05 07:14:58;;;;;;;;;;;;;;;18.37;57.68;101672.62;2256719;78;51255;-72
2023/04/05 07:18:00;;;;;;;;;;;;;;;18.32;58.11;101665.55;2245597;78;50428;-73
2023/04/05 07:21:02;;;;;;;;;;;;;;;18.32;58.07;101661.53;2278987;78;50239;-73
2023/04/05 07:24:05;;;;;;;;;;;;;;;18.29;57.90;101663.19;2257910;78;51570;-74
2023/04/05 07:27:06;;;;;;;;;;;;;;;18.24;58.01;101653.44;2233505;78;49718;-74
2023/04/05 07:30:08;;;;;;;;;;;;;;;18.27;57.89;101657.14;2279021;78;50426;-74
2023/04/05 07:33:10;;;;;;;;;;;;;;;18.29;57.80;101657.83;2278902;78;50364;-74
2023/04/05 07:36:11;;;;;;;;;;;;;;;18.26;57.78;101652.77;2257652;78;51546;-74
2023/04/05 07:39:13;;;;;;;;;;;;;;;18.26;57.78;101651.42;2233144;78;51007;-75
2023/04/05 07:42:16;;;;;;;;;;;;;;;18.21;57.85;101652.39;2278881;78;51606;-75
2023/04/05 07:45:18;;;;;;;;;;;;;;;18.22;57.85;101654.92;2241073;78;50356;-74
2023/04/05 07:48:20;;;;;;;;;;;;;;;18.21;57.90;101657.27;2247289;78;49984;-74
2023/04/05 07:51:21;;;;;;;;;;;;;;;18.22;57.99;101654.09;2257756;78;52899;-74
2023/04/05 07:54:23;;;;;;;;;;;;;;;18.19;57.96;101661.11;2221297;79;50202;-73
2023/04/05 07:57:25;;;;;;;;;;;;;;;18.17;57.95;101670.63;2241718;79;50670;-74
2023/04/05 08:00:26;;;;;;;;;;;;;;;18.22;57.89;101676.86;2271533;78;51465;-74
2023/04/05 08:03:28;;;;;;;;;;;;;;;18.36;57.67;101674.11;2257991;78;52332;-74
2023/04/05 08:06:30;;;;;;;;;;;;;;;18.43;57.38;101671.15;2278590;77;50795;-74
2023/04/05 08:09:31;;;;;;;;;;;;;;;18.44;57.52;101672.31;2278922;78;51498;-74
2023/04/05 08:12:33;;;;;;;;;;;;;;;18.46;57.50;101672.17;2257651;78;53404;-73
2023/04/05 08:15:34;;;;;;;;;;;;;;;18.46;57.35;101668.98;2255634;78;51831;-74
2023/04/05 08:18:36;;;;;;;;;;;;;;;18.46;57.29;101662.79;2247791;78;51482;-74
2023/04/05 08:21:38;;;;;;;;;;;;;;;18.45;57.21;101661.95;2279060;77;50318;-74
2023/04/05 08:24:39;;;;;;;;;;;;;;;18.44;57.13;101660.25;2257357;78;50616;-73
2023/04/05 08:27:41;;;;;;;;;;;;;;;18.44;57.08;101669.63;2233428;78;51247;-74
2023/04/05 08:30:44;;;;;;;;;;;;;;;18.43;56.99;101668.47;2258035;78;50792;-74
2023/04/05 08:33:45;;;;;;;;;;;;;;;18.42;56.94;101663.61;2257903;78;51589;-76
2023/04/05 08:36:47;;;;;;;;;;;;;;;18.44;56.89;101661.59;2279036;78;50199;-74
2023/04/05 08:39:49;;;;;;;;;;;;;;;18.44;56.81;101660.25;2258273;78;51522;-74
2023/04/05 08:42:55;;;;;;;;;;;;;;;18.41;56.80;101659.23;2258039;78;50378;-74
2023/04/05 08:45:57;;;;;;;;;;;;;;;18.39;56.80;101657.71;2270775;77;52219;-74
2023/04/05 08:48:58;;;;;;;;;;;;;;;18.37;56.82;101657.02;2248788;78;50402;-74
2023/04/05 08:52:00;;;;;;;;;;;;;;;18.32;56.87;101651.32;2213271;79;52411;-74
2023/04/05 08:55:02;;;;;;;;;;;;;;;18.27;56.92;101659.82;2233616;79;50351;-75
2023/04/05 08:58:04;;;;;;;;;;;;;;;18.23;56.97;101658.44;2213437;79;50171;-74
2023/04/05 09:01:06;;;;;;;;;;;;;;;18.18;57.06;101653.55;2233844;79;51522;-75
2023/04/05 09:04:09;;;;;;;;;;;;;;;18.16;57.11;101660.05;2212823;79;52391;-74
2023/04/05 09:07:11;;;;;;;;;;;;;;;18.19;57.07;101657.09;2233742;79;50110;-74
2023/04/05 09:10:13;;;;;;;;;;;;;;;18.21;56.98;101657.27;2233871;79;51537;-75
2023/04/05 09:13:14;;;;;;;;;;;;;;;18.24;56.87;101654.28;2213418;79;50379;-75
2023/04/05 09:16:16;;;;;;;;;;;;;;;18.21;56.84;101647.90;2247702;78;50446;-73
2023/04/05 09:19:18;;;;;;;;;;;;;;;18.18;56.90;101654.88;2263918;78;50317;-73
2023/04/05 09:22:19;;;;;;;;;;;;;;;18.17;56.89;101653.72;2258110;78;51590;-73
2023/04/05 09:25:41;;;;;;;;;;;;;;;18.13;56.96;101646.97;2278688;78;50256;-73
2023/04/05 09:28:42;;;;;;;;;;;;;;;18.11;57.02;101652.98;2257916;78;52500;-74
2023/04/05 09:31:44;;;;;;;;;;;;;;;18.08;57.06;101654.13;2258062;78;51656;-74
2023/04/05 09:34:46;;;;;;;;;;;;;;;18.06;57.16;101652.97;2278598;78;52700;-74
2023/04/05 09:37:52;;;;;;;;;;;;;;;18.05;57.17;101647.25;2279109;78;50730;-73
2023/04/05 09:40:53;;;;;;;;;;;;;;;18.05;57.17;101647.75;2279462;78;22375;-74
2023/04/05 09:43:54;;;;;;;;;;;;;;;18.09;57.04;101642.95;2257616;78;51556;-73
2023/04/05 09:46:56;;;;;;;;;;;;;;;18.18;56.79;101639.31;2245446;78;52264;-73
2023/04/05 09:50:01;;;;;;;;;;;;;;;18.25;56.60;101642.55;2263717;77;51241;-74
2023/04/05 09:53:06;;;;;;;;;;;;;;;18.30;56.46;101643.42;2257950;78;49684;-73
2023/04/05 09:56:12;;;;;;;;;;;;;;;18.31;56.39;101637.06;2257869;78;50754;-74
2023/04/05 09:59:13;;;;;;;;;;;;;;;18.28;56.38;101635.53;2258308;78;50345;-73
2023/04/05 10:02:15;;;;;;;;;;;;;;;18.27;56.42;101634.37;2279022;78;50376;-73
2023/04/05 10:05:16;;;;;;;;;;;;;;;18.23;56.50;101637.01;2258095;78;52720;-74
2023/04/05 10:08:18;;;;;;;;;;;;;;;18.20;56.57;101636.82;2279021;78;51472;-74
2023/04/05 10:11:20;;;;;;;;;;;;;;;18.14;56.70;101633.44;2279044;77;51482;-75
2023/04/05 10:14:22;;;;;;;;;;;;;;;18.09;56.85;101631.73;2278924;78;51601;-73
2023/04/05 10:17:28;;;;;;;;;;;;;;;18.08;56.91;101629.19;2235018;78;51814;-75
2023/04/05 10:20:31;;;;;;;;;;;;;;;18.09;56.97;101632.23;2233644;78;51646;-74
2023/04/05 10:23:33;;;;;;;;;;;;;;;18.09;56.90;101625.53;2241805;79;51599;-73
2023/04/05 10:26:37;;;;;;;;;;;;;;;18.07;56.95;101631.03;2241520;79;50372;-74
2023/04/05 10:29:40;;;;;;;;;;;;;;;18.08;56.97;101624.67;2239138;79;51586;-75
2023/04/05 10:32:53;;;;;;;;;;;;;;;18.08;56.96;101621.99;2241368;79;51487;-73
2023/04/05 10:36:08;;;;;;;;;;;;;;;18.11;57.42;101622.17;2241753;79;52349;-75
2023/04/05 10:39:11;;;;;;;;;;;;;;;18.17;57.27;101629.61;2220264;79;52447;-76
2023/04/05 10:42:14;;;;;;;;;;;;;;;18.21;57.27;101620.24;2246670;78;52410;-74
2023/04/05 10:45:18;;;;;;;;;;;;;;;18.21;56.84;101621.58;2278377;78;51471;-74
2023/04/05 10:48:34;;;;;;;;;;;;;;;18.17;56.84;101618.89;2249025;78;51640;-74
2023/04/05 10:51:36;;;;;;;;;;;;;;;18.12;56.84;101618.52;2233908;79;50732;-73
2023/04/05 10:54:37;;;;;;;;;;;;;;;18.09;56.88;101619.67;2214321;78;52593;-73
2023/04/05 10:57:39;;;;;;;;;;;;;;;18.06;56.90;101622.16;2273450;78;51454;-74
2023/04/05 11:00:40;;;;;;;;;;;;;;;18.01;57.02;101613.76;2279084;78;51600;-73
2023/04/05 11:03:47;;;;;;;;;;;;;;;17.98;57.04;101614.08;2278967;78;51483;-73
2023/04/05 11:06:48;;;;;;;;;;;;;;;17.97;57.17;101623.59;2279018;78;49979;-73
2023/04/05 11:09:55;;;;;;;;;;;;;;;17.97;57.20;101621.75;2257888;78;50386;-73
2023/04/05 11:12:55;;;;;;;;;;;;;;;17.97;57.16;101619.07;2278774;78;22175;-73
2023/04/05 11:15:59;;;;;;;;;;;;;;;17.99;57.14;101614.41;2272220;78;50245;-74
2023/04/05 11:19:00;;;;;;;;;;;;;;;17.94;57.22;101616.70;2250440;78;51967;-73
2023/04/05 11:22:02;;;;;;;;;;;;;;;17.94;57.11;101614.03;2278870;78;51533;-74
2023/04/05 11:25:04;;;;;;;;;;;;;;;17.99;56.94;101612.23;2278753;78;50197;-73
2023/04/05 11:28:07;;;;;;;;;;;;;;;18.05;56.80;101615.11;2279050;78;50812;-73
2023/04/05 11:31:13;;;;;;;;;;;;;;;18.17;56.45;101609.52;2257929;78;52660;-73
2023/04/05 11:34:15;;;;;;;;;;;;;;;18.30;56.12;101613.13;2278747;78;51631;-74
2023/04/05 11:37:16;;;;;;;;;;;;;;;18.31;55.99;101607.59;2257917;78;51454;-74
2023/04/05 11:40:26;;;;;;;;;;;;;;;18.39;55.75;101599.59;2279049;78;51462;-74
2023/04/05 11:43:29;;;;;;;;;;;;;;;18.35;55.80;101604.95;2257742;78;51786;-74
2023/04/05 11:46:33;;;;;;;;;;;;;;;18.34;55.84;101608.64;2266423;78;51751;-73
2023/04/05 11:49:35;;;;;;;;;;;;;;;18.31;55.81;101606.25;2278817;78;51556;-73
2023/04/05 11:52:36;;;;;;;;;;;;;;;18.23;55.98;101605.70;2257898;78;50288;-73
2023/04/05 11:55:39;;;;;;;;;;;;;;;18.21;55.99;101598.34;2257925;78;49665;-73
2023/04/05 11:58:40;;;;;;;;;;;;;;;18.11;56.26;101596.27;2257952;78;51582;-74
2023/04/05 12:01:44;;;;;;;;;;;;;;;18.08;56.37;101599.73;2278774;78;51529;-75
2023/04/05 12:04:47;;;;;;;;;;;;;;;18.04;56.47;101600.05;2278489;78;50337;-73
2023/04/05 12:07:56;;;;;;;;;;;;;;;18.01;56.55;101603.55;2256848;78;51273;-75
2023/04/05 12:11:01;;;;;;;;;;;;;;;17.99;56.60;101606.37;2257411;78;22371;-75
2023/04/05 12:14:03;;;;;;;;;;;;;;;17.97;56.69;101603.00;2278907;78;50305;-74
2023/04/05 12:17:05;;;;;;;;;;;;;;;17.96;56.77;101607.19;2237359;78;51063;-74
2023/04/05 12:20:07;;;;;;;;;;;;;;;17.97;56.72;101603.51;2253924;78;51740;-74
2023/04/05 12:23:08;;;;;;;;;;;;;;;17.98;56.67;101602.50;2278861;78;51502;-73
2023/04/05 12:26:10;;;;;;;;;;;;;;;17.97;56.66;101595.47;2278688;78;51483;-74
2023/04/05 12:29:12;;;;;;;;;;;;;;;17.89;56.79;101589.56;2278916;78;51648;-73
2023/04/05 12:32:13;;;;;;;;;;;;;;;17.90;56.69;101581.86;2233277;78;52496;-73
2023/04/05 12:35:15;;;;;;;;;;;;;;;17.96;56.56;101577.23;2278639;78;51456;-72
2023/04/05 12:38:17;;;;;;;;;;;;;;;18.08;56.30;101571.61;2278976;78;51677;-73
2023/04/05 12:41:18;;;;;;;;;;;;;;;18.25;55.85;101576.91;2257692;78;50744;-74
2023/04/05 12:44:29;;;;;;;;;;;;;;;18.33;55.60;101575.29;2257575;78;51593;-74
2023/04/05 12:47:34;;;;;;;;;;;;;;;18.32;55.47;101577.14;2257065;78;50413;-73
2023/04/05 12:50:36;;;;;;;;;;;;;;;18.33;55.38;101580.14;2279067;78;51745;-74
2023/04/05 12:53:39;;;;;;;;;;;;;;;18.31;55.41;101578.63;2257942;78;51300;-74
2023/04/05 12:56:41;;;;;;;;;;;;;;;18.26;55.49;101572.39;2278180;78;51492;-73
2023/04/05 12:59:43;;;;;;;;;;;;;;;18.23;55.58;101582.09;2257546;78;50085;-73
2023/04/05 13:02:46;;;;;;;;;;;;;;;18.19;55.69;101582.08;2257554;78;50819;-72
2023/04/05 13:05:48;;;;;;;;;;;;;;;18.14;55.95;101573.17;2278401;78;50914;-73
2023/04/05 13:08:49;;;;;;;;;;;;;;;18.12;56.00;101571.65;2227879;78;51023;-71
2023/04/05 13:11:51;;;;;;;;;;;;;;;18.10;56.15;101574.47;2279019;78;50380;-73
2023/04/05 13:14:52;;;;;;;;;;;;;;;18.11;56.48;101569.48;2278817;78;50440;-72
2023/04/05 13:17:54;;;;;;;;;;;;;;;18.12;56.70;101563.61;2242892;78;50281;-71
2023/04/05 13:20:56;;;;;;;;;;;;;;;18.18;56.59;101554.94;2257881;78;52494;-74
2023/04/05 13:23:58;;;;;;;;;;;;;;;18.18;56.65;101551.75;2278900;77;51549;-75
2023/04/05 13:26:59;;;;;;;;;;;;;;;18.17;56.54;101553.27;2261450;78;51423;-74
2023/04/05 13:30:01;;;;;;;;;;;;;;;18.20;57.01;101543.57;2246039;78;52068;-74
2023/04/05 13:33:05;;;;;;;;;;;;;;;18.24;57.10;101542.27;2221615;79;52620;-74
2023/04/05 13:36:07;;;;;;;;;;;;;;;18.25;56.96;101538.07;2247186;78;51498;-73
2023/04/05 13:39:08;;;;;;;;;;;;;;;18.22;56.50;101530.36;2253976;78;51596;-72
2023/04/05 13:42:10;;;;;;;;;;;;;;;18.25;56.55;101540.75;2279076;78;51615;-71
2023/04/05 13:45:11;;;;;;;;;;;;;;;18.22;57.55;101529.52;2233347;78;52393;-72
2023/04/05 13:48:13;;;;;;;;;;;;;;;18.22;58.17;101518.81;2233390;78;51527;-72
2023/04/05 13:51:15;;;;;;;;;;;;;;;18.21;58.86;101527.35;2279056;78;50394;-71
2023/04/05 13:54:17;;;;;;;;;;;;;;;18.21;59.40;101517.11;2278232;78;51623;-71
2023/04/05 13:57:19;;;;;;;;;;;;;;;18.22;58.92;101516.13;2233557;78;51828;-71
2023/04/05 14:00:21;;;;;;;;;;;;;;;18.22;58.69;101518.81;2258064;78;51527;-72
2023/04/05 14:03:24;;;;;;;;;;;;;;;18.20;58.96;101518.13;2257712;78;50636;-72
2023/04/05 14:06:26;;;;;;;;;;;;;;;18.16;58.91;101516.75;2278824;78;51578;-71
2023/04/05 14:09:29;;;;;;;;;;;;;;;18.15;58.71;101513.23;2233438;78;51769;-72
2023/04/05 14:12:30;;;;;;;;;;;;;;;18.11;59.27;101513.70;2258299;78;50303;-72
2023/04/05 14:15:33;;;;;;;;;;;;;;;18.09;59.67;101507.19;2277488;78;50386;-72
2023/04/05 14:18:34;;;;;;;;;;;;;;;18.09;59.23;101501.00;2268219;78;51577;-72
2023/04/05 14:21:36;;;;;;;;;;;;;;;18.16;58.80;101494.84;2257796;78;51283;-72
2023/04/05 14:24:37;;;;;;;;;;;;;;;18.25;58.47;101492.53;2257573;78;50281;-71
2023/04/05 14:27:41;;;;;;;;;;;;;;;18.28;58.32;101490.03;2257780;78;49999;-73
2023/04/05 14:30:42;;;;;;;;;;;;;;;18.31;58.32;101487.02;2258383;78;51641;-71
2023/04/05 14:33:44;;;;;;;;;;;;;;;18.29;58.48;101486.37;2233282;78;51731;-71
2023/04/05 14:36:46;;;;;;;;;;;;;;;18.28;58.62;101482.83;2278861;78;52470;-71
2023/04/05 14:39:47;;;;;;;;;;;;;;;18.26;58.80;101479.97;2279002;78;50269;-72
2023/04/05 14:42:49;;;;;;;;;;;;;;;18.20;58.99;101480.62;2278909;77;50317;-72
2023/04/05 14:45:51;;;;;;;;;;;;;;;18.16;59.38;101476.57;2257672;78;52386;-71
2023/04/05 14:48:52;;;;;;;;;;;;;;;18.16;59.84;101477.44;2241819;77;51454;-71
2023/04/05 14:51:54;;;;;;;;;;;;;;;18.12;59.54;101473.89;2233667;79;51474;-73
2023/04/05 14:54:55;;;;;;;;;;;;;;;18.12;59.96;101471.21;2213109;79;51563;-72
2023/04/05 14:57:57;;;;;;;;;;;;;;;18.15;59.84;101465.53;2213144;79;52418;-72
2023/04/05 15:00:59;;;;;;;;;;;;;;;18.13;59.73;101467.02;2213197;79;51502;-72
2023/04/05 15:04:00;;;;;;;;;;;;;;;18.11;59.24;101466.84;2233356;79;52310;-72
2023/04/05 15:07:02;;;;;;;;;;;;;;;18.09;59.80;101471.03;2233686;79;51406;-72
2023/04/05 15:10:04;;;;;;;;;;;;;;;18.06;59.90;101459.30;2213796;79;52488;-72
2023/04/05 15:13:05;;;;;;;;;;;;;;;18.06;59.51;101468.67;2213543;79;50059;-72
2023/04/05 15:16:07;;;;;;;;;;;;;;;17.99;59.62;101467.13;2244036;78;52331;-71
2023/04/05 15:19:09;;;;;;;;;;;;;;;17.98;60.19;101464.12;2270520;77;51696;-71
2023/04/05 15:22:10;;;;;;;;;;;;;;;17.96;60.34;101455.91;2253669;78;52565;-71
2023/04/05 15:25:12;;;;;;;;;;;;;;;18.00;59.76;101452.72;2278674;78;51525;-72
2023/04/05 15:28:14;;;;;;;;;;;;;;;18.13;59.16;101459.48;2278909;78;51396;-70
2023/04/05 15:31:16;;;;;;;;;;;;;;;18.18;58.85;101451.81;2257885;78;51447;-72
2023/04/05 15:34:17;;;;;;;;;;;;;;;18.25;58.75;101456.87;2257426;78;51789;-71